ADDS METAR Data INFO
IDs: Format: Raw Decoded Include TAF

Data at: 0847 UTC 22 Feb 2018

KCOU 220839Z AUTO 05010KT 3SM -FZRA BR OVC005 M01/M02 A3039 RMK AO2 FZRAB15 P0002 I1002 T10061017
KCOU 220829Z AUTO 04009KT 2 1/2SM -FZRA BR OVC005 M01/M02 A3039 RMK AO2 FZRAB15 P0001 I1001 T10111017
KCOU 220821Z AUTO 04008KT 3SM -FZRA BR OVC005 M01/M02 A3039 RMK AO2 FZRAB15 P0000 I1000 T10111017
KCOU 220754Z AUTO 04008KT 4SM BR OVC005 M01/M02 A3040 RMK AO2 SLP304 I1002 T10111017
KCOU 220654Z AUTO 05008KT 4SM BR OVC005 M01/M02 A3042 RMK AO2 SLP311 I1001 T10111022
KCOU 220554Z AUTO 05010KT 3SM BR OVC005 M01/M02 A3044 RMK AO2 CIG 004V009 SLP318 I1004 I6006 T10111022 11011 21017 410111044 56009
KCOU 220518Z AUTO 05008KT 2SM BR OVC007 M01/M02 A3044 RMK AO2 CIG 004V009 I1001 T10111022
KCOU 220503Z AUTO 04006KT 3SM BR OVC008 M02/M02 A3046 RMK AO2 CIG 005V009 I1000 T10171022
KCOU 220454Z AUTO 03007KT 2 1/2SM BR OVC008 M01/M02 A3046 RMK AO2 CIG 006V012 SLP324 I1002 T10111022
KCOU 220447Z AUTO 03007KT 2 1/2SM BR OVC008 M02/M02 A3045 RMK AO2 CIG 006V012 I1002 T10171022
KCOU 220354Z AUTO 04009KT 10SM OVC010 M02/M03 A3045 RMK AO2 SLP321 T10171033
KCOU 212354Z 05009KT 10SM OVC014 M02/M04 A3053 RMK AO2 SLP349 T10171039 11017 21033 51018
KCOU 212254Z 04008KT 10SM BKN014 OVC048 M02/M04 A3052 RMK AO2 PRESRR SLP346 T10171039
KCOU 212154Z 05011KT 10SM BKN014 M02/M04 A3049 RMK AO2 SLP335 T10171044
KCOU 212054Z 04011KT 10SM BKN012 M02/M04 A3048 RMK AO2 SLP331 T10221044 55019
KCOU 212010Z 04014KT 10SM BKN012 M03/M05 A3047 RMK AO2 T10281050
KCOU 212003Z 03014KT 10SM SCT012 M03/M05 A3047 RMK AO2 T10281050
KCOU 211954Z 04012G19KT 10SM BKN012 M03/M05 A3047 RMK AO2 SLP327 T10281050
KCOU 211854Z 03011KT 10SM BKN013 M03/M05 A3051 RMK AO2 SLP342 T10281050
KCOU 211754Z 03012KT 10SM BKN013 M03/M06 A3054 RMK AO2 SLP351 T10281056 11028 21044 50007
KCOU 211654Z 02010KT 10SM BKN013 M03/M06 A3055 RMK AO2 SLP355 T10331061
KCOU 211633Z 01010KT 10SM BKN013 M04/M06 A3054 RMK AO2 T10391061
KCOU 211554Z 02011KT 10SM FEW015 M04/M06 A3053 RMK AO2 SLP348 T10391061
KCOU 211521Z 02015KT 10SM FEW014 M04/M07 A3051 RMK AO2 T10391067
KCOU 211502Z 02014KT 10SM BKN014 M04/M07 A3052 RMK AO2 T10391067 $
KCOU 211454Z 03013KT 10SM SCT014 M04/M07 A3051 RMK AO2 SLP343 T10441072 50017 $
KCOU 211446Z 01012KT 10SM BKN013 M04/M07 A3052 RMK AO2 T10441067 $
KCOU 211436Z 01011KT 10SM BKN015 M04/M07 A3053 RMK AO2 T10441067 $
KCOU 211354Z 36011KT 10SM BKN014 M04/M07 A3052 RMK AO2 PRESRR SLP346 T10441067
KCOU 211304Z 35011KT 10SM BKN014 M04/M06 A3048 RMK AO2 T10441061
KCOU 211254Z 36012KT 10SM SCT014 M04/M07 A3047 RMK AO2 SLP328 T10441067
KCOU 210754Z AUTO 34012KT 10SM OVC014 M03/M05 A3036 RMK AO2 SLP288 I1000 T10331050
KCOU 210654Z AUTO 35013KT 9SM OVC013 M03/M04 A3032 RMK AO2 UPB33E50SNB32E33B34E48B50E51 SLP274 P0000 I1001 T10281044
KCOU 210617Z AUTO 36013KT 9SM BKN011 OVC014 M03/M04 A3028 RMK AO2 CIG 006V013 I1000 T10281044
KCOU 210603Z AUTO 33016KT 6SM BR OVC008 M02/M04 A3029 RMK AO2 CIG 006V012 PRESRR I1000 T10221039
KCOU 210554Z AUTO 35014KT 5SM BR BKN010 OVC014 M02/M03 A3025 RMK AO2 CIG 006V013 SLP250 60050 I1001 I6023 T10221033 10006 21022 401941022 50022